Time;durP1;ratioP1;P1;durP2;ratioP2;P2;SDS_P1;SDS_P2;PMS_P1;PMS_P2;Temp;Humidity;BMP_temperature;BMP_pressure;BME280_temperature;BME280_humidity;BME280_pressure;Samples;Min_cycle;Max_cycle;Signal;HPM_P1;HPM_P2
2024/01/08 00:01:37;;;;;;;17.70;9.50;;;;;;;;;;5027700;28;20097;-81
2024/01/08 00:04:03;;;;;;;19.40;9.82;;;;;;;;;;5045447;28;20371;-81
2024/01/08 00:06:30;;;;;;;21.02;11.70;;;;;;;;;;5034648;28;20030;-81
2024/01/08 00:08:56;;;;;;;26.45;12.57;;;;;;;;;;5007081;28;20223;-82
2024/01/08 00:11:22;;;;;;;10.95;6.13;;;;;;;;;;5007614;28;20029;-81
2024/01/08 00:13:48;;;;;;;24.30;11.85;;;0.50;91.40;;;;;;5007893;28;20112;-83
2024/01/08 00:16:14;;;;;;;23.88;11.95;;;;;;;;;;5008202;28;20072;-81
2024/01/08 00:18:40;;;;;;;22.83;10.82;;;;;;;;;;5007854;28;20112;-80
2024/01/08 00:21:06;;;;;;;27.30;13.25;;;;;;;;;;5025159;28;20221;-80
2024/01/08 00:23:37;;;;;;;23.38;12.43;;;;;;;;;;5007477;28;20071;-81
2024/01/08 00:26:03;;;;;;;21.75;11.27;;;0.50;99.90;;;;;;5007148;28;20017;-81
2024/01/08 00:28:29;;;;;;;23.77;12.32;;;;;;;;;;5007323;28;20038;-80
2024/01/08 00:30:55;;;;;;;21.88;11.68;;;;;;;;;;5015178;28;20348;-81
2024/01/08 00:33:21;;;;;;;25.13;12.10;;;;;;;;;;5045060;28;20202;-83
2024/01/08 00:35:47;;;;;;;20.67;11.90;;;;;;;;;;5025513;28;20029;-81
2024/01/08 00:38:14;;;;;;;24.27;13.30;;;0.50;99.90;;;;;;5028028;28;20024;-83
2024/01/08 00:40:40;;;;;;;23.33;11.55;;;;;;;;;;5027823;28;20034;-81
2024/01/08 00:43:08;;;;;;;23.95;11.57;;;0.40;91.80;;;;;;5028074;28;20026;-81
2024/01/08 00:45:36;;;;;;;24.25;12.32;;;0.50;99.90;;;;;;5028339;28;20052;-81
2024/01/08 00:48:02;;;;;;;23.92;11.40;;;;;;;;;;5025037;28;20049;-74
2024/01/08 00:50:28;;;;;;;27.30;13.75;;;;;;;;;;5043262;28;20020;-75
2024/01/08 00:52:54;;;;;;;25.73;12.75;;;;;;;;;;5043483;28;20028;-74
2024/01/08 00:55:20;;;;;;;22.85;11.68;;;;;;;;;;5043418;28;20124;-75
2024/01/08 00:57:46;;;;;;;26.20;12.75;;;;;;;;;;5043890;28;20044;-74
2024/01/08 01:00:12;;;;;;;26.42;12.93;;;;;;;;;;5043433;28;20029;-75
2024/01/08 01:02:40;;;;;;;25.88;12.95;;;;;;;;;;5025994;28;20292;-74
2024/01/08 01:05:06;;;;;;;24.20;13.57;;;0.40;99.90;;;;;;5025510;28;20597;-75
2024/01/08 01:07:31;;;;;;;22.38;11.38;;;0.30;97.00;;;;;;5025322;28;20132;-75
2024/01/08 01:09:57;;;;;;;24.63;12.60;;;;;;;;;;5025497;28;20220;-75
2024/01/08 01:12:23;;;;;;;25.17;12.70;;;;;;;;;;5042894;28;20412;-74
2024/01/08 01:14:49;;;;;;;22.33;11.55;;;;;;;;;;5043486;28;20025;-75
2024/01/08 01:17:15;;;;;;;22.52;12.10;;;;;;;;;;5041527;28;20021;-73
2024/01/08 01:19:41;;;;;;;21.20;11.90;;;;;;;;;;5025180;28;20156;-74
2024/01/08 01:22:07;;;;;;;25.02;12.38;;;;;;;;;;5043260;28;20025;-74
2024/01/08 01:24:33;;;;;;;23.85;12.38;;;;;;;;;;5043133;28;20021;-73
2024/01/08 01:26:59;;;;;;;26.13;12.65;;;;;;;;;;5043076;28;20304;-74
2024/01/08 01:29:25;;;;;;;21.98;11.57;;;;;;;;;;5042945;28;20021;-75
2024/01/08 01:31:52;;;;;;;22.42;11.55;;;;;;;;;;5042729;28;20056;-75
2024/01/08 01:34:18;;;;;;;21.90;11.80;;;;;;;;;;5025306;28;20257;-76
2024/01/08 01:36:45;;;;;;;19.08;9.75;;;;;;;;;;5043317;28;20025;-75
2024/01/08 01:39:11;;;;;;;26.65;12.32;;;;;;;;;;5042377;28;20021;-74
2024/01/08 01:41:37;;;;;;;20.70;11.80;;;;;;;;;;5042021;28;20100;-74
2024/01/08 01:44:03;;;;;;;24.17;12.48;;;-0.10;97.40;;;;;;5042385;28;20041;-74
2024/01/08 01:46:35;;;;;;;22.20;11.20;;;-0.20;92.80;;;;;;5043306;28;20029;-76
2024/01/08 01:49:01;;;;;;;29.15;12.10;;;;;;;;;;5043326;28;20044;-77
2024/01/08 01:51:27;;;;;;;22.85;10.95;;;;;;;;;;5043341;28;20026;-76
2024/01/08 01:53:53;;;;;;;26.65;12.65;;;-0.10;93.10;;;;;;5043565;28;20309;-75
2024/01/08 01:56:19;;;;;;;23.50;12.05;;;;;;;;;;5043557;28;20418;-77
2024/01/08 01:58:46;;;;;;;25.77;11.75;;;0.00;92.70;;;;;;5024650;28;20075;-74
2024/01/08 02:01:12;;;;;;;20.25;11.40;;;0.00;92.70;;;;;;5042337;28;20043;-75
2024/01/08 02:03:39;;;;;;;24.80;12.43;;;-0.10;92.70;;;;;;5042434;28;20089;-74
2024/01/08 02:06:08;;;;;;;22.90;12.70;;;-0.10;93.00;;;;;;5024796;28;20024;-74
2024/01/08 02:08:34;;;;;;;23.98;11.50;;;-0.20;99.90;;;;;;5042317;28;20029;-74
2024/01/08 02:11:00;;;;;;;27.05;12.75;;;;;;;;;;5042014;28;20021;-74
2024/01/08 02:13:26;;;;;;;28.33;14.23;;;;;;;;;;5042142;28;20024;-74
2024/01/08 02:15:52;;;;;;;29.50;13.07;;;;;;;;;;5041740;28;20025;-74
2024/01/08 02:18:19;;;;;;;24.30;13.15;;;-0.60;96.00;;;;;;5036363;28;20029;-75
2024/01/08 02:20:46;;;;;;;29.77;12.90;;;;;;;;;;5024364;28;20083;-76
2024/01/08 02:23:12;;;;;;;26.92;13.25;;;;;;;;;;5024101;28;20029;-76
2024/01/08 02:25:38;;;;;;;28.27;14.20;;;;;;;;;;5042132;28;20096;-76
2024/01/08 02:28:04;;;;;;;30.75;15.30;;;;;;;;;;5042395;28;20041;-77
2024/01/08 02:30:30;;;;;;;32.53;15.05;;;;;;;;;;5024991;28;20028;-76
2024/01/08 02:32:56;;;;;;;27.25;12.98;;;;;;;;;;5024807;28;20029;-76
2024/01/08 02:35:22;;;;;;;28.52;13.43;;;;;;;;;;5042461;28;20043;-76
2024/01/08 02:37:48;;;;;;;21.15;10.77;;;;;;;;;;5042641;28;20235;-76
2024/01/08 02:40:14;;;;;;;29.42;12.85;;;;;;;;;;5042785;28;20025;-76
2024/01/08 02:42:41;;;;;;;25.67;13.50;;;;;;;;;;5024449;28;20096;-77
2024/01/08 02:45:08;;;;;;;23.38;12.43;;;-0.70;97.90;;;;;;5042474;28;20221;-79
2024/01/08 02:47:37;;;;;;;25.42;11.77;;;;;;;;;;5042477;28;20044;-79
2024/01/08 02:50:04;;;;;;;;;;;-0.70;97.60;;;;;;5024939;28;20029;-75
2024/01/08 02:52:33;;;;;;;23.40;10.40;;;;;;;;;;5043047;28;20093;-81
2024/01/08 02:54:59;;;;;;;21.80;9.48;;;;;;;;;;5022301;28;20180;-80
2024/01/08 02:57:29;;;;;;;25.08;12.30;;;-0.40;99.90;;;;;;5023314;28;20022;-80
2024/01/08 02:59:57;;;;;;;29.70;12.80;;;-0.90;99.90;;;;;;5022386;28;20058;-77
2024/01/08 03:02:27;;;;;;;23.77;11.10;;;-0.90;98.50;;;;;;5023316;28;20022;-78
2024/01/08 03:04:53;;;;;;;26.58;13.50;;;;;;;;;;5022004;28;20034;-78
2024/01/08 03:07:20;;;;;;;24.90;13.23;;;;;;;;;;5021995;28;20029;-79
2024/01/08 03:09:49;;;;;;;24.60;12.98;;;-0.90;98.80;;;;;;5023957;28;20018;-78
2024/01/08 03:12:18;;;;;;;23.45;11.63;;;-1.20;99.90;;;;;;5023052;28;20032;-81
2024/01/08 03:14:44;;;;;;;30.27;14.63;;;;;;;;;;5007044;28;20037;-81
2024/01/08 03:17:10;;;;;;;25.67;14.77;;;;;;;;;;5022967;28;20022;-83
2024/01/08 03:19:37;;;;;;;31.50;13.00;;;;;;;;;;5023634;28;20021;-80
2024/01/08 03:22:03;;;;;;;26.13;13.18;;;-1.10;99.90;;;;;;5023210;28;20051;-81
2024/01/08 03:24:29;;;;;;;30.38;13.52;;;;;;;;;;5039880;28;20037;-81
2024/01/08 03:26:55;;;;;;;25.65;13.02;;;;;;;;;;5046191;23;20053;-81
2024/01/08 03:29:21;;;;;;;27.20;13.23;;;;;;;;;;5044052;28;20049;-81
2024/01/08 03:31:47;;;;;;;28.35;13.27;;;;;;;;;;5042032;28;20326;-81
2024/01/08 03:34:14;;;;;;;29.90;13.90;;;;;;;;;;5044385;28;20028;-81
2024/01/08 03:36:47;;;;;;;30.85;13.57;;;-1.00;99.40;;;;;;5046582;28;20029;-79
2024/01/08 03:39:17;;;;;;;25.73;12.35;;;-0.90;99.90;;;;;;5046631;28;20021;-79
2024/01/08 03:41:43;;;;;;;29.20;14.68;;;;;;;;;;5045163;28;20017;-79
2024/01/08 03:44:10;;;;;;;27.25;13.70;;;-1.00;99.10;;;;;;5045248;28;20332;-78
2024/01/08 03:46:39;;;;;;;24.33;12.27;;;-1.00;99.00;;;;;;5028609;28;20076;-79
2024/01/08 03:49:07;;;;;;;32.05;14.10;;;;;;;;;;5045223;28;20048;-79
2024/01/08 03:51:34;;;;;;;24.60;12.07;;;;;;;;;;5046501;28;20080;-78
2024/01/08 03:54:00;;;;;;;28.48;14.02;;;;;;;;;;5046623;28;20025;-77
2024/01/08 03:56:26;;;;;;;28.88;13.68;;;;;;;;;;5046576;28;20326;-79
2024/01/08 03:58:52;;;;;;;28.40;13.23;;;;;;;;;;5045137;28;20029;-77
2024/01/08 04:01:18;;;;;;;29.95;14.02;;;;;;;;;;5046291;28;20013;-78
2024/01/08 04:03:44;;;;;;;31.13;14.40;;;;;;;;;;5046524;28;20017;-77
2024/01/08 04:06:10;;;;;;;29.05;14.02;;;;;;;;;;5046469;28;20305;-77
2024/01/08 04:08:36;;;;;;;29.38;13.55;;;;;;;;;;5046467;28;20040;-77
2024/01/08 04:11:03;;;;;;;28.88;14.55;;;;;;;;;;5046319;28;20222;-79
2024/01/08 04:13:29;;;;;;;25.02;12.43;;;;;;;;;;5038464;28;20029;-79
2024/01/08 04:18:24;;;;;;;;;;;-0.90;97.90;;;;;;5105679;28;20048;-78
2024/01/08 04:20:50;;;;;;;28.30;13.45;;;;;;;;;;5088847;28;20014;-79
2024/01/08 04:23:16;;;;;;;30.70;14.73;;;;;;;;;;5086889;28;20360;-80
2024/01/08 04:25:42;;;;;;;30.27;14.25;;;;;;;;;;5101597;28;20087;-80
2024/01/08 04:28:08;;;;;;;28.05;13.38;;;;;;;;;;5088070;28;20035;-75
2024/01/08 04:30:35;;;;;;;28.67;13.45;;;;;;;;;;5106544;28;20020;-82
2024/01/08 04:33:00;;;;;;;32.20;13.38;;;-0.70;99.90;;;;;;5116546;22;20052;-82
2024/01/08 04:35:26;;;;;;;29.85;14.60;;;;;;;;;;5091251;28;20034;-83
2024/01/08 04:37:52;;;;;;;31.38;14.07;;;;;;;;;;5109982;28;20028;-83
2024/01/08 04:40:18;;;;;;;26.95;13.70;;;;;;;;;;5087913;28;20016;-75
2024/01/08 04:42:44;;;;;;;28.77;13.70;;;;;;;;;;5106518;28;20111;-76
2024/01/08 04:45:11;;;;;;;28.15;13.25;;;;;;;;;;5106052;28;20037;-79
2024/01/08 04:47:37;;;;;;;26.00;13.43;;;;;;;;;;5106451;28;20104;-77
2024/01/08 04:50:03;;;;;;;27.25;13.93;;;;;;;;;;5106732;28;20369;-76
2024/01/08 04:52:29;;;;;;;28.52;13.98;;;;;;;;;;5106853;28;20016;-74
2024/01/08 04:54:55;;;;;;;31.33;13.93;;;;;;;;;;5105666;28;20059;-76
2024/01/08 04:57:21;;;;;;;28.10;14.80;;;;;;;;;;5088859;28;20031;-75
2024/01/08 04:59:47;;;;;;;25.88;13.18;;;;;;;;;;5106574;28;20034;-75
2024/01/08 05:02:13;;;;;;;25.70;13.15;;;;;;;;;;5106273;28;20039;-75
2024/01/08 05:04:39;;;;;;;26.20;13.30;;;;;;;;;;5104348;28;20016;-75
2024/01/08 05:07:05;;;;;;;30.75;14.75;;;;;;;;;;5103551;28;20020;-79
2024/01/08 05:09:31;;;;;;;30.92;14.82;;;;;;;;;;5103319;28;20067;-75
2024/01/08 05:11:57;;;;;;;27.95;13.80;;;;;;;;;;5103176;28;20154;-74
2024/01/08 05:14:23;;;;;;;28.40;14.52;;;;;;;;;;5103625;28;20028;-75
2024/01/08 05:16:49;;;;;;;32.97;14.27;;;;;;;;;;5103847;28;20043;-77
2024/01/08 05:19:15;;;;;;;31.60;14.60;;;;;;;;;;5104742;28;20020;-80
2024/01/08 05:21:42;;;;;;;27.27;13.98;;;;;;;;;;5075312;28;20331;-81
2024/01/08 05:24:08;;;;;;;29.45;14.80;;;;;;;;;;5068574;28;20012;-81
2024/01/08 05:26:34;;;;;;;28.55;13.73;;;;;;;;;;5082006;28;20039;-80
2024/01/08 05:29:00;;;;;;;25.45;13.98;;;;;;;;;;5105036;28;20028;-82
2024/01/08 05:31:27;;;;;;;27.17;15.07;;;-1.10;99.90;;;;;;5106214;28;20104;-83
2024/01/08 05:33:53;;;;;;;34.92;15.82;;;;;;;;;;5086009;28;20353;-80
2024/01/08 05:36:19;;;;;;;30.60;14.10;;;;;;;;;;5085796;28;20338;-83
2024/01/08 05:38:45;;;;;;;33.88;15.00;;;;;;;;;;5084508;28;20066;-75
2024/01/08 05:41:11;;;;;;;30.25;16.13;;;;;;;;;;5083479;28;20016;-75
2024/01/08 05:43:40;;;;;;;33.85;14.32;;;;;;;;;;5083186;28;20648;-75
2024/01/08 05:46:06;;;;;;;31.30;15.40;;;-1.10;96.50;;;;;;5083349;28;20020;-75
2024/01/08 05:48:37;;;;;;;34.45;15.70;;;;;;;;;;5083292;28;20040;-74
2024/01/08 05:51:09;;;;;;;32.58;15.40;;;-1.30;98.80;;;;;;5083179;28;20037;-76
2024/01/08 05:53:35;;;;;;;28.98;13.88;;;;;;;;;;5083102;28;20089;-76
2024/01/08 05:56:01;;;;;;;33.78;15.80;;;;;;;;;;5083111;28;20021;-76
2024/01/08 05:58:29;;;;;;;30.98;15.98;;;;;;;;;;5083158;28;20041;-74
2024/01/08 06:00:57;;;;;;;31.88;15.13;;;;;;;;;;5082781;28;20034;-76
2024/01/08 06:03:23;;;;;;;30.65;14.95;;;;;;;;;;5056588;22;20084;-77
2024/01/08 06:05:49;;;;;;;31.38;15.50;;;;;;;;;;5027293;28;20061;-75
2024/01/08 06:08:15;;;;;;;34.25;16.17;;;;;;;;;;5022382;28;20100;-74
2024/01/08 06:10:41;;;;;;;31.73;14.68;;;;;;;;;;5033121;28;20025;-75
2024/01/08 06:13:09;;;;;;;30.13;15.70;;;-1.10;96.10;;;;;;5042300;28;20032;-75
2024/01/08 06:15:35;;;;;;;30.13;15.57;;;;;;;;;;5039488;28;20025;-77
2024/01/08 06:18:01;;;;;;;32.38;15.38;;;;;;;;;;5020825;28;20063;-73
2024/01/08 06:20:27;;;;;;;34.55;15.80;;;-1.10;99.90;;;;;;5020168;28;20040;-74
2024/01/08 06:22:53;;;;;;;31.27;15.93;;;;;;;;;;5027210;28;20348;-74
2024/01/08 06:25:19;;;;;;;37.17;17.10;;;;;;;;;;5040893;28;20389;-74
2024/01/08 06:27:45;;;;;;;29.75;15.43;;;;;;;;;;5045145;28;20041;-75
2024/01/08 06:30:11;;;;;;;31.92;14.98;;;-1.10;99.90;;;;;;5034459;28;20033;-76
2024/01/08 06:32:37;;;;;;;27.70;14.15;;;-1.20;99.90;;;;;;5041547;28;20104;-76
2024/01/08 06:35:03;;;;;;;31.73;15.95;;;-1.20;99.90;;;;;;5035567;28;20017;-75
2024/01/08 06:37:29;;;;;;;34.80;15.90;;;;;;;;;;5027005;28;20033;-76
2024/01/08 06:39:55;;;;;;;34.45;15.77;;;-1.20;95.40;;;;;;5022332;28;20036;-77
2024/01/08 06:42:21;;;;;;;35.38;17.55;;;;;;;;;;5022307;28;20021;-76
2024/01/08 06:44:48;;;;;;;33.20;16.13;;;;;;;;;;5022305;28;20022;-77
2024/01/08 06:47:14;;;;;;;30.58;14.52;;;;;;;;;;5020905;28;20034;-78
2024/01/08 06:49:40;;;;;;;30.15;14.20;;;;;;;;;;5022172;28;20033;-78
2024/01/08 06:52:06;;;;;;;30.13;14.82;;;-1.00;98.10;;;;;;5022192;28;20322;-75
2024/01/08 06:54:32;;;;;;;34.38;14.90;;;;;;;;;;5021365;28;20081;-77
2024/01/08 06:56:58;;;;;;;35.22;16.00;;;;;;;;;;5022537;28;20294;-79
2024/01/08 06:59:24;;;;;;;30.48;15.35;;;;;;;;;;5022159;28;20384;-80
2024/01/08 07:01:51;;;;;;;35.65;16.30;;;;;;;;;;5022386;28;20057;-80
2024/01/08 07:04:17;;;;;;;33.00;16.88;;;;;;;;;;5021887;28;20081;-80
2024/01/08 07:06:44;;;;;;;32.00;14.55;;;;;;;;;;5020588;28;20029;-79
2024/01/08 07:09:10;;;;;;;33.47;15.18;;;;;;;;;;5022341;28;20044;-80
2024/01/08 07:11:36;;;;;;;35.05;14.95;;;;;;;;;;5024976;28;20132;-80
2024/01/08 07:14:03;;;;;;;28.08;14.02;;;;;;;;;;5025445;28;20085;-81
2024/01/08 07:16:29;;;;;;;39.50;15.90;;;;;;;;;;5025730;28;20064;-78
2024/01/08 07:18:55;;;;;;;31.98;15.45;;;;;;;;;;5041561;28;20034;-81
2024/01/08 07:21:22;;;;;;;33.65;14.98;;;;;;;;;;5042236;28;20053;-82
2024/01/08 07:23:50;;;;;;;31.00;14.68;;;-0.50;92.70;;;;;;5045084;28;20022;-82
2024/01/08 07:26:16;;;;;;;32.50;14.85;;;;;;;;;;5028981;28;20032;-82
2024/01/08 07:28:46;;;;;;;28.13;13.32;;;-0.80;99.90;;;;;;5027203;28;20029;-81
2024/01/08 07:31:12;;;;;;;31.75;15.13;;;;;;;;;;5024654;28;20054;-79
2024/01/08 07:33:41;;;;;;;29.08;13.98;;;;;;;;;;5025933;28;20022;-79
2024/01/08 07:36:07;;;;;;;30.33;13.82;;;-0.70;97.70;;;;;;5041035;28;20026;-78
2024/01/08 07:38:33;;;;;;;24.25;13.00;;;;;;;;;;5026337;28;20090;-78
2024/01/08 07:41:00;;;;;;;30.33;14.00;;;;;;;;;;5025230;28;20080;-79
2024/01/08 07:43:26;;;;;;;31.90;15.18;;;;;;;;;;5040902;28;20359;-79
2024/01/08 07:45:52;;;;;;;30.95;13.90;;;;;;;;;;5024411;28;20026;-78
2024/01/08 07:48:18;;;;;;;27.95;13.85;;;;;;;;;;5037829;28;20101;-79
2024/01/08 07:50:45;;;;;;;30.55;13.90;;;-0.50;92.50;;;;;;5027941;28;20021;-79
2024/01/08 07:53:11;;;;;;;30.48;12.73;;;;;;;;;;5023810;28;20057;-79
2024/01/08 07:55:37;;;;;;;25.48;12.82;;;;;;;;;;5040839;28;20080;-79
2024/01/08 07:58:03;;;;;;;25.70;12.40;;;-0.40;99.90;;;;;;5025051;28;20022;-79
2024/01/08 08:00:29;;;;;;;26.00;13.38;;;;;;;;;;5023758;28;20044;-79
2024/01/08 08:02:55;;;;;;;28.58;13.90;;;;;;;;;;5039981;28;20054;-79
2024/01/08 08:05:21;;;;;;;29.08;13.10;;;;;;;;;;5025156;28;20018;-79
2024/01/08 08:07:47;;;;;;;27.92;13.98;;;;;;;;;;5024695;28;20036;-79
2024/01/08 08:10:14;;;;;;;31.00;13.85;;;;;;;;;;5025511;28;20018;-78
2024/01/08 08:12:40;;;;;;;28.98;13.30;;;;;;;;;;5025618;28;20018;-79
2024/01/08 08:15:06;;;;;;;28.30;13.85;;;-0.10;99.90;;;;;;5026115;28;20029;-79
2024/01/08 08:17:32;;;;;;;26.00;13.88;;;;;;;;;;5026564;28;20101;-80
2024/01/08 08:19:58;;;;;;;30.67;13.05;;;;;;;;;;5022402;28;20034;-80
2024/01/08 08:22:24;;;;;;;29.20;13.13;;;;;;;;;;5039751;28;20100;-78
2024/01/08 08:24:50;;;;;;;23.48;13.52;;;;;;;;;;5038349;28;20018;-79
2024/01/08 08:27:16;;;;;;;30.08;14.27;;;;;;;;;;5024799;28;20014;-80
2024/01/08 08:29:45;;;;;;;23.48;12.18;;;0.00;90.30;;;;;;5025986;28;20038;-79
2024/01/08 08:32:11;;;;;;;26.77;12.43;;;;;;;;;;5026408;28;20014;-78
2024/01/08 08:34:37;;;;;;;29.42;13.75;;;;;;;;;;5025131;28;20049;-79
2024/01/08 08:37:03;;;;;;;28.90;14.38;;;0.20;96.40;;;;;;5030968;28;20022;-79
2024/01/08 08:39:29;;;;;;;25.42;12.38;;;0.40;99.00;;;;;;5035522;28;20198;-81
2024/01/08 08:41:57;;;;;;;25.92;13.20;;;0.30;99.10;;;;;;5040327;28;20021;-82
2024/01/08 08:44:23;;;;;;;24.90;13.52;;;;;;;;;;5031896;28;20029;-81
2024/01/08 08:46:50;;;;;;;26.48;13.02;;;;;;;;;;5037002;28;20021;-81
2024/01/08 08:49:16;;;;;;;27.25;13.85;;;;;;;;;;5035801;28;20026;-80
2024/01/08 08:51:43;;;;;;;24.48;12.88;;;;;;;;;;5027667;28;20022;-79
2024/01/08 08:54:09;;;;;;;28.35;14.40;;;;;;;;;;5033840;28;20029;-80
2024/01/08 08:56:35;;;;;;;26.45;12.93;;;;;;;;;;5034187;28;20300;-80
2024/01/08 08:59:01;;;;;;;24.77;14.10;;;;;;;;;;5025768;28;20294;-80
2024/01/08 09:01:28;;;;;;;25.15;13.95;;;;;;;;;;5024403;28;20021;-80
2024/01/08 09:03:54;;;;;;;23.15;12.02;;;0.90;95.20;;;;;;5001823;28;20346;-78
2024/01/08 09:06:23;;;;;;;25.02;13.52;;;1.20;95.30;;;;;;5005448;28;20097;-77
2024/01/08 09:08:50;;;;;;;25.35;13.15;;;;;;;;;;5021130;28;20045;-79
2024/01/08 09:11:16;;;;;;;27.15;13.73;;;1.70;94.80;;;;;;5021407;28;20028;-79
2024/01/08 09:13:42;;;;;;;27.60;13.73;;;;;;;;;;5022661;28;20029;-76
2024/01/08 09:16:12;;;;;;;26.08;12.65;;;1.60;80.40;;;;;;5023566;28;20026;-80
2024/01/08 09:18:38;;;;;;;26.85;12.48;;;1.60;79.90;;;;;;5007848;28;20026;-81
2024/01/08 09:21:08;;;;;;;23.40;11.15;;;1.50;78.30;;;;;;5004479;28;20357;-82
2024/01/08 09:23:34;;;;;;;28.25;13.73;;;;;;;;;;5004441;28;20125;-81
2024/01/08 09:26:00;;;;;;;25.48;12.75;;;;;;;;;;5006489;28;20076;-81
2024/01/08 09:28:27;;;;;;;25.17;13.38;;;1.60;93.90;;;;;;5004349;28;20038;-81
2024/01/08 09:30:54;;;;;;;24.55;12.40;;;;;;;;;;5004801;28;20345;-78
2024/01/08 09:33:21;;;;;;;25.20;12.88;;;1.50;79.10;;;;;;5002340;28;20038;-80
2024/01/08 09:35:47;;;;;;;22.55;11.35;;;;;;;;;;4995888;28;20048;-81
2024/01/08 09:38:13;;;;;;;23.77;12.88;;;;;;;;;;5004866;28;20029;-81
2024/01/08 09:40:39;;;;;;;25.95;12.18;;;;;;;;;;5005321;28;20035;-84
2024/01/08 09:43:09;;;;;;;24.23;12.65;;;1.60;78.20;;;;;;5005582;28;20330;-82
2024/01/08 09:45:43;;;;;;;21.83;11.65;;;1.70;77.00;;;;;;5003507;28;20041;-80
2024/01/08 09:48:10;;;;;;;20.38;11.52;;;1.70;76.10;;;;;;5004228;28;20045;-83
2024/01/08 09:50:37;;;;;;;24.20;11.93;;;1.70;76.70;;;;;;5003570;28;20297;-80
2024/01/08 09:53:04;;;;;;;22.85;11.82;;;;;;;;;;5002412;28;20026;-81
2024/01/08 09:55:30;;;;;;;22.40;10.82;;;;;;;;;;5004304;28;20114;-78
2024/01/08 09:57:56;;;;;;;20.65;11.63;;;;;;;;;;5004005;28;20029;-82
2024/01/08 10:00:22;;;;;;;18.70;10.48;;;;;;;;;;5003721;28;20014;-81
2024/01/08 10:02:57;;;;;;;26.67;11.77;;;1.60;92.50;;;;;;5016027;28;20057;-81
2024/01/08 10:05:26;;;;;;;23.13;12.15;;;1.80;75.20;;;;;;5022824;28;20098;-82
2024/01/08 10:07:52;;;;;;;23.67;10.90;;;1.90;92.20;;;;;;5023262;28;20025;-82
2024/01/08 10:10:19;;;;;;;24.35;11.43;;;1.60;75.20;;;;;;5023274;28;20026;-80
2024/01/08 10:12:49;;;;;;;22.77;10.88;;;;;;;;;;5024864;28;20077;-78
2024/01/08 10:15:18;;;;;;;23.15;12.25;;;;;;;;;;5023701;28;20040;-81
2024/01/08 10:17:48;;;;;;;20.10;11.00;;;1.50;82.60;;;;;;5031116;28;20022;-81
2024/01/08 10:20:15;;;;;;;17.48;9.40;;;2.70;79.50;;;;;;5043816;28;20025;-79
2024/01/08 10:22:42;;;;;;;20.65;10.55;;;;;;;;;;5042404;28;20107;-75
2024/01/08 10:25:08;;;;;;;19.00;10.07;;;2.00;91.40;;;;;;5044035;28;20013;-79
2024/01/08 10:27:34;;;;;;;19.02;10.73;;;;;;;;;;5043935;28;20021;-79
2024/01/08 10:30:01;;;;;;;20.33;10.27;;;;;;;;;;5044328;28;20052;-79
2024/01/08 10:32:27;;;;;;;21.90;11.50;;;;;;;;;;5044073;28;20025;-80
2024/01/08 10:34:55;;;;;;;24.30;11.32;;;;;;;;;;5043083;28;20021;-79
2024/01/08 10:37:21;;;;;;;24.95;11.40;;;1.90;74.90;;;;;;5041105;28;20029;-79
2024/01/08 10:39:48;;;;;;;19.63;10.30;;;;;;;;;;5024546;28;20049;-80
2024/01/08 10:42:14;;;;;;;21.45;11.38;;;2.10;73.60;;;;;;5024225;28;20017;-79
2024/01/08 10:44:40;;;;;;;19.77;9.93;;;;;;;;;;5022401;28;20033;-80
2024/01/08 10:47:09;;;;;;;25.30;11.65;;;2.10;72.80;;;;;;5024428;28;20061;-79
2024/01/08 10:49:39;;;;;;;23.15;11.05;;;2.00;72.80;;;;;;5023543;28;20041;-79
2024/01/08 10:52:22;;;;;;;19.75;10.88;;;1.90;91.40;;;;;;5024982;28;20081;-81
2024/01/08 10:54:55;;;;;;;19.77;10.75;;;2.10;92.00;;;;;;5023377;28;20018;-79
2024/01/08 10:57:21;;;;;;;20.10;9.90;;;;;;;;;;5022874;28;20022;-79
2024/01/08 10:59:51;;;;;;;20.20;10.50;;;1.90;74.60;;;;;;5023228;28;20037;-80
2024/01/08 11:02:17;;;;;;;20.40;9.18;;;;;;;;;;5022294;28;20318;-80
2024/01/08 11:04:47;;;;;;;20.23;10.18;;;1.70;92.70;;;;;;5022286;28;20037;-81
2024/01/08 11:07:13;;;;;;;19.63;9.88;;;1.80;75.00;;;;;;5020954;28;20014;-81
2024/01/08 11:09:39;;;;;;;23.05;9.48;;;1.90;75.20;;;;;;5039348;28;20033;-81
2024/01/08 11:12:10;;;;;;;19.65;8.82;;;2.10;92.40;;;;;;5039557;28;20081;-80
2024/01/08 11:14:36;;;;;;;20.17;8.80;;;;;;;;;;5040054;28;20532;-82
2024/01/08 11:17:02;;;;;;;18.63;9.80;;;;;;;;;;5024501;28;20065;-81
2024/01/08 11:19:29;;;;;;;17.63;8.60;;;;;;;;;;5023917;28;20049;-79
2024/01/08 11:21:56;;;;;;;15.02;8.32;;;2.10;73.80;;;;;;5024157;28;20025;-80
2024/01/08 11:24:22;;;;;;;18.63;9.15;;;;;;;;;;5024098;28;20145;-82
2024/01/08 11:26:49;;;;;;;17.95;8.70;;;;;;;;;;5023307;28;20059;-79
2024/01/08 11:29:16;;;;;;;17.35;8.82;;;2.00;72.70;;;;;;5024299;28;20092;-82
2024/01/08 11:31:42;;;;;;;17.67;8.95;;;;;;;;;;5024165;28;20026;-82
2024/01/08 11:34:37;;;;;;;17.38;8.00;;;2.00;72.50;;;;;;5024317;28;20230;-79
2024/01/08 11:37:31;;;;;;;16.52;8.80;;;2.00;71.80;;;;;;5024261;28;20040;-80
2024/01/08 11:40:02;;;;;;;17.88;8.35;;;2.10;72.10;;;;;;5023651;28;20030;-80
2024/01/08 11:42:28;;;;;;;15.63;7.93;;;;;;;;;;5039930;28;20026;-80
2024/01/08 11:44:58;;;;;;;14.93;7.63;;;2.40;90.20;;;;;;5023411;28;20018;-80
2024/01/08 11:47:23;;;;;;;;;;;2.50;71.60;;;;;;5040535;28;20033;-81
2024/01/08 11:49:51;;;;;;;16.90;8.48;;;2.60;70.50;;;;;;5024319;28;19905;-81
2024/01/08 11:52:17;;;;;;;16.10;8.25;;;;;;;;;;5040514;28;20037;-84
2024/01/08 11:54:48;;;;;;;14.80;8.07;;;;;;;;;;5025092;28;20061;-82
2024/01/08 11:57:14;;;;;;;13.85;8.02;;;;;;;;;;5027098;28;20025;-80
2024/01/08 11:59:40;;;;;;;16.70;8.20;;;;;;;;;;5027353;28;20030;-83
2024/01/08 12:02:16;;;;;;;21.02;8.85;;;2.70;89.00;;;;;;5028691;28;20050;-84
2024/01/08 12:04:43;;;;;;;16.48;9.20;;;2.40;69.10;;;;;;5028676;28;20018;-83
2024/01/08 12:07:14;;;;;;;13.20;7.55;;;2.60;89.10;;;;;;5027947;28;20036;-84
2024/01/08 12:09:40;;;;;;;16.25;8.32;;;;;;;;;;5025385;28;20229;-79
2024/01/08 12:12:08;;;;;;;14.82;7.95;;;2.70;90.00;;;;;;5024832;28;20025;-80
2024/01/08 12:14:36;;;;;;;14.95;8.23;;;2.60;69.10;;;;;;5026224;28;20025;-78
2024/01/08 12:17:03;;;;;;;18.02;7.57;;;2.50;68.10;;;;;;5026098;28;20262;-79
2024/01/08 12:19:36;;;;;;;14.30;7.47;;;2.30;72.10;;;;;;5026340;28;20087;-80
2024/01/08 12:22:03;;;;;;;17.38;8.20;;;2.60;89.80;;;;;;5025908;28;20045;-81
2024/01/08 12:24:29;;;;;;;19.08;8.77;;;;;;;;;;5026210;28;20085;-82
2024/01/08 12:27:01;;;;;;;13.43;8.10;;;2.80;69.90;;;;;;5024453;28;20026;-79
2024/01/08 12:29:27;;;;;;;15.60;8.38;;;;;;;;;;5025358;28;20026;-80
2024/01/08 12:32:03;;;;;;;17.95;9.48;;;3.10;68.20;;;;;;5023930;28;20052;-79
2024/01/08 12:34:33;;;;;;;15.35;7.40;;;3.20;68.40;;;;;;5025274;28;20084;-79
2024/01/08 12:37:00;;;;;;;18.52;9.45;;;3.30;68.50;;;;;;5026212;28;20032;-83
2024/01/08 12:39:31;;;;;;;19.25;8.75;;;3.30;84.80;;;;;;5041350;28;20310;-80
2024/01/08 12:41:59;;;;;;;20.02;8.48;;;3.50;84.90;;;;;;5041768;28;20029;-81
2024/01/08 12:44:34;;;;;;;19.20;9.02;;;3.70;68.10;;;;;;5036565;28;20036;-80
2024/01/08 12:47:01;;;;;;;16.13;8.82;;;4.00;67.80;;;;;;5044006;28;20075;-81
2024/01/08 12:49:27;;;;;;;20.85;8.50;;;4.50;83.60;;;;;;5042267;28;20033;-82
2024/01/08 12:51:56;;;;;;;13.77;8.55;;;4.90;66.80;;;;;;5042271;28;20341;-80
2024/01/08 12:54:22;;;;;;;18.17;9.88;;;;;;;;;;5041991;28;20024;-79
2024/01/08 12:56:51;;;;;;;19.42;10.00;;;6.60;74.80;;;;;;5041728;28;20385;-80
2024/01/08 12:59:17;;;;;;;25.23;10.38;;;7.90;73.10;;;;;;5042811;28;20329;-84
2024/01/08 13:01:43;;;;;;;18.83;9.60;;;8.60;70.10;;;;;;5041490;28;20076;-81
2024/01/08 13:04:16;;;;;;;15.85;8.85;;;8.30;59.60;;;;;;5041833;28;20025;-82
2024/01/08 13:06:43;;;;;;;13.98;8.98;;;9.90;64.10;;;;;;5040840;28;20040;-82
2024/01/08 13:09:09;;;;;;;15.70;9.32;;;9.90;61.60;;;;;;5041270;28;20087;-79
2024/01/08 13:11:39;;;;;;;13.75;8.93;;;10.30;52.90;;;;;;5041216;28;20032;-83
2024/01/08 13:14:08;;;;;;;13.73;9.63;;;11.50;57.80;;;;;;5038069;28;20033;-80
2024/01/08 13:16:34;;;;;;;14.02;8.82;;;11.60;56.10;;;;;;5036119;28;20025;-82
2024/01/08 13:19:00;;;;;;;14.65;9.18;;;13.20;53.30;;;;;;5022603;28;20325;-80
2024/01/08 13:21:26;;;;;;;14.20;10.18;;;;;;;;;;5022607;28;20030;-80
2024/01/08 13:23:52;;;;;;;14.75;9.93;;;16.10;49.80;;;;;;5037806;28;20017;-80
2024/01/08 13:26:18;;;;;;;11.75;8.48;;;;;;;;;;5022426;28;20025;-80
2024/01/08 13:28:45;;;;;;;13.35;9.73;;;;;;;;;;5037854;28;20326;-83
2024/01/08 13:31:11;;;;;;;13.80;9.55;;;;;;;;;;5033875;28;20060;-81
2024/01/08 13:33:37;;;;;;;11.52;8.98;;;;;;;;;;5036818;28;20017;-83
2024/01/08 13:36:04;;;;;;;13.18;8.18;;;20.20;33.80;;;;;;5034835;28;20041;-84
2024/01/08 13:38:30;;;;;;;13.15;8.88;;;19.50;41.70;;;;;;5022224;28;20033;-84
2024/01/08 13:41:00;;;;;;;16.60;10.15;;;;;;;;;;5037372;28;20028;-85